Airfield :
LOGIN :

Register | Disclaimer

   EN    FR    IT 

 










Legend :    VFR   Marginal VFR   IFR   Intensive IFR   Very Intensive IFR
Visi :
Ceiling :
>= 8 km
>= 3000ft
5 to 8 km
1000 to 3000 ft
1500m to 5 km
500 to 1000 ft
800 to 1500m
200 to 500 ft
< 800m
< 200 ft
Symbols :   Thunderstorms  Fog  Heavy snow  Heavy precipitations  Wind > 20 kt
SIGMETs :     Misc.  Thunderstorms  Icing  Turbulence  Mountain Waves  Volcanic Ashes







- Airport Elevation : 3125 ft
- IATA code : ESB


LTAC - Ankara Esenboga

CURRENT METAR :
  • 180820Z 02005KT 9999 SCT035 SCT100 23/14 Q1014 NOSIG RMK RWY21L 35006KT 310V020 RWY03L 01005KT 270V080 RWY21R VRB04KT

EXPIRED METARs :
  • 180750Z 06004KT 9999 SCT035 SCT100 22/14 Q1014 NOSIG RMK RWY21L 03007KT 360V060 RWY03L VRB03KT RWY21R 06007KT 020V090
  • 180720Z 06005KT 020V090 9999 SCT035 SCT100 20/14 Q1014 NOSIG RMK RWY21L VRB03KT RWY03L 04004KT 350V080 RWY21R 04007KT
  • 180650Z VRB01KT 9999 SCT035 SCT100 20/15 Q1014 NOSIG RMK RWY21L VRB02KT RWY03L VRB02KT RWY21R 02003KT 330V060
  • 180620Z 21003KT 9999 SCT035 SCT100 19/14 Q1014 NOSIG RMK RWY21L VRB01KT RWY03L VRB01KT RWY21R 00000KT
  • 180550Z VRB02KT 9999 SCT035 SCT100 18/14 Q1014 NOSIG RMK RWY21L VRB02KT RWY03L 30002KT RWY21R 17003KT

TAF TAF LTAC
Valid from the 18 at 06:00 until the 19 at 06:00 UTC


180440Z 1806/1906 VRB02KT 9999 SCT040
TEMPO 1811/1815 04015G25KT TSRA SCT025CB BKN030
No reported NOTAMs for that airfield.



MET'MAP, your aeronautical weather chart ! - Copyright ORBIFLY December 2007 - Disclaimer

ORBIFLY MET'MAP TEAM :

Programming & Development : Alexandra Zaïnal
Concept & Development : Baudouin d'Aumeries
Co-Development & Prog : Marc-Olivier Méhu
Technical & hardware support : Manuel Goepfert

Contact : metmap@orbifly.com




SOURCES & CREDITS :

   NOAA